Decoded Metar for KGAF ( in ) (IATA:) | Meteo·Mobile Aviation Weather
aviador You're here:

KGAF Decoded Metar

in
Report Time2019-03-22 09:55:00
UTC Time2019-03-22 09:56:24
Flight Rules vfr VFR
Wind330° at 06 kt
W.Decomp.*RWY 35: 5.6 kt HW 2.1 kt LCW
RWY 26: 2.1 kt HW 5.6 kt RCW
W.Rank330° ranks 5
Current wind is below 330° avg. (10.2)
Visibility9999 m
Phenomena:N/A
Clouds:N/A
Expected CloudBase > 800 ft AGL from Temp-Dew spread
CeilingNone
Temp-3°C
Dew Point-5°C (86% RH)
AAT-7.8°C
QNH1025 hPa
Raw Report
KGAF 220955Z AUTO 33006KT 10SM CLR M03/M05 A3027 RMK AO2 PWINO=

Extra information for KGAF:More info

Social comments